sensor_id;sensor_type;location;lat;lon;timestamp;temperature;humidity
48806;DHT22;34625;47.176;27.548;2024-01-30T00:02:24;22.10;52.20
48806;DHT22;34625;47.176;27.548;2024-01-30T00:04:51;22.00;52.30
48806;DHT22;34625;47.176;27.548;2024-01-30T00:07:17;22.10;52.50
48806;DHT22;34625;47.176;27.548;2024-01-30T00:09:43;22.00;52.40
48806;DHT22;34625;47.176;27.548;2024-01-30T00:12:12;22.10;52.50
48806;DHT22;34625;47.176;27.548;2024-01-30T00:14:38;22.10;52.40
48806;DHT22;34625;47.176;27.548;2024-01-30T00:17:04;22.00;52.20
48806;DHT22;34625;47.176;27.548;2024-01-30T00:19:30;22.20;52.30
48806;DHT22;34625;47.176;27.548;2024-01-30T00:21:56;22.00;52.30
48806;DHT22;34625;47.176;27.548;2024-01-30T00:24:22;22.20;52.30
48806;DHT22;34625;47.176;27.548;2024-01-30T00:26:48;22.20;52.30
48806;DHT22;34625;47.176;27.548;2024-01-30T00:29:14;22.00;52.30
48806;DHT22;34625;47.176;27.548;2024-01-30T00:31:45;22.20;52.30
48806;DHT22;34625;47.176;27.548;2024-01-30T00:34:11;22.20;52.30
48806;DHT22;34625;47.176;27.548;2024-01-30T00:36:37;22.10;52.20
48806;DHT22;34625;47.176;27.548;2024-01-30T00:39:04;22.10;52.20
48806;DHT22;34625;47.176;27.548;2024-01-30T00:41:35;22.10;52.20
48806;DHT22;34625;47.176;27.548;2024-01-30T00:44:01;22.00;52.20
48806;DHT22;34625;47.176;27.548;2024-01-30T00:46:27;22.00;52.20
48806;DHT22;34625;47.176;27.548;2024-01-30T00:48:53;22.00;52.30
48806;DHT22;34625;47.176;27.548;2024-01-30T00:51:19;22.00;52.30
48806;DHT22;34625;47.176;27.548;2024-01-30T00:53:45;22.00;52.30
48806;DHT22;34625;47.176;27.548;2024-01-30T00:56:11;21.90;52.30
48806;DHT22;34625;47.176;27.548;2024-01-30T00:58:37;21.90;52.30
48806;DHT22;34625;47.176;27.548;2024-01-30T01:01:04;21.90;52.30
48806;DHT22;34625;47.176;27.548;2024-01-30T01:03:30;21.90;52.40
48806;DHT22;34625;47.176;27.548;2024-01-30T01:05:56;21.90;52.50
48806;DHT22;34625;47.176;27.548;2024-01-30T01:08:22;21.90;52.50
48806;DHT22;34625;47.176;27.548;2024-01-30T01:10:48;21.90;52.40
48806;DHT22;34625;47.176;27.548;2024-01-30T01:13:14;21.90;52.40
48806;DHT22;34625;47.176;27.548;2024-01-30T01:15:40;22.10;52.40
48806;DHT22;34625;47.176;27.548;2024-01-30T01:18:06;21.90;52.30
48806;DHT22;34625;47.176;27.548;2024-01-30T01:20:32;22.00;52.40
48806;DHT22;34625;47.176;27.548;2024-01-30T01:22:58;22.00;52.50
48806;DHT22;34625;47.176;27.548;2024-01-30T01:25:24;22.00;52.50
48806;DHT22;34625;47.176;27.548;2024-01-30T01:27:50;22.00;52.50
48806;DHT22;34625;47.176;27.548;2024-01-30T01:30:18;22.00;52.80
48806;DHT22;34625;47.176;27.548;2024-01-30T01:32:50;22.00;52.80
48806;DHT22;34625;47.176;27.548;2024-01-30T01:35:24;21.90;52.90
48806;DHT22;34625;47.176;27.548;2024-01-30T01:37:51;21.90;53.00
48806;DHT22;34625;47.176;27.548;2024-01-30T01:40:24;22.10;53.20
48806;DHT22;34625;47.176;27.548;2024-01-30T01:42:51;21.90;53.10
48806;DHT22;34625;47.176;27.548;2024-01-30T01:45:18;21.90;53.10
48806;DHT22;34625;47.176;27.548;2024-01-30T01:47:47;21.80;53.10
48806;DHT22;34625;47.176;27.548;2024-01-30T01:50:15;21.90;53.10
48806;DHT22;34625;47.176;27.548;2024-01-30T01:52:50;21.90;53.10
48806;DHT22;34625;47.176;27.548;2024-01-30T01:55:16;21.80;52.90
48806;DHT22;34625;47.176;27.548;2024-01-30T01:57:48;21.80;52.80
48806;DHT22;34625;47.176;27.548;2024-01-30T02:00:14;21.80;52.80
48806;DHT22;34625;47.176;27.548;2024-01-30T02:02:41;21.80;52.80
48806;DHT22;34625;47.176;27.548;2024-01-30T02:05:09;21.80;52.70
48806;DHT22;34625;47.176;27.548;2024-01-30T02:07:35;21.80;52.70
48806;DHT22;34625;47.176;27.548;2024-01-30T02:10:02;21.80;52.60
48806;DHT22;34625;47.176;27.548;2024-01-30T02:12:29;21.90;52.60
48806;DHT22;34625;47.176;27.548;2024-01-30T02:14:56;21.80;52.50
48806;DHT22;34625;47.176;27.548;2024-01-30T02:17:22;21.90;52.60
48806;DHT22;34625;47.176;27.548;2024-01-30T02:19:49;22.00;52.40
48806;DHT22;34625;47.176;27.548;2024-01-30T02:22:15;21.90;52.40
48806;DHT22;34625;47.176;27.548;2024-01-30T02:24:42;21.80;52.20
48806;DHT22;34625;47.176;27.548;2024-01-30T02:27:08;21.80;52.30
48806;DHT22;34625;47.176;27.548;2024-01-30T02:29:34;21.80;52.20
48806;DHT22;34625;47.176;27.548;2024-01-30T02:32:00;21.90;52.30
48806;DHT22;34625;47.176;27.548;2024-01-30T02:34:26;21.90;52.30
48806;DHT22;34625;47.176;27.548;2024-01-30T02:36:52;21.80;52.20
48806;DHT22;34625;47.176;27.548;2024-01-30T02:39:18;21.90;52.30
48806;DHT22;34625;47.176;27.548;2024-01-30T02:41:44;21.80;52.20
48806;DHT22;34625;47.176;27.548;2024-01-30T02:44:10;21.80;52.20
48806;DHT22;34625;47.176;27.548;2024-01-30T02:46:36;21.60;52.20
48806;DHT22;34625;47.176;27.548;2024-01-30T02:49:03;21.60;52.20
48806;DHT22;34625;47.176;27.548;2024-01-30T02:51:29;21.70;52.20
48806;DHT22;34625;47.176;27.548;2024-01-30T02:53:55;21.60;52.10
48806;DHT22;34625;47.176;27.548;2024-01-30T02:56:21;21.70;52.30
48806;DHT22;34625;47.176;27.548;2024-01-30T02:58:47;21.50;52.70
48806;DHT22;34625;47.176;27.548;2024-01-30T03:01:13;21.60;52.90
48806;DHT22;34625;47.176;27.548;2024-01-30T03:03:39;21.70;53.10
48806;DHT22;34625;47.176;27.548;2024-01-30T03:06:06;21.60;53.00
48806;DHT22;34625;47.176;27.548;2024-01-30T03:08:33;21.50;53.00
48806;DHT22;34625;47.176;27.548;2024-01-30T03:11:01;21.80;53.00
48806;DHT22;34625;47.176;27.548;2024-01-30T03:13:27;21.70;52.80
48806;DHT22;34625;47.176;27.548;2024-01-30T03:15:53;21.60;52.70
48806;DHT22;34625;47.176;27.548;2024-01-30T03:18:19;21.70;52.70
48806;DHT22;34625;47.176;27.548;2024-01-30T03:20:45;21.80;52.60
48806;DHT22;34625;47.176;27.548;2024-01-30T03:23:11;21.70;52.60
48806;DHT22;34625;47.176;27.548;2024-01-30T03:25:37;21.70;52.50
48806;DHT22;34625;47.176;27.548;2024-01-30T03:28:04;21.70;52.50
48806;DHT22;34625;47.176;27.548;2024-01-30T03:30:30;21.70;52.40
48806;DHT22;34625;47.176;27.548;2024-01-30T03:32:56;21.70;52.40
48806;DHT22;34625;47.176;27.548;2024-01-30T03:35:22;21.60;52.40
48806;DHT22;34625;47.176;27.548;2024-01-30T03:37:48;21.70;52.50
48806;DHT22;34625;47.176;27.548;2024-01-30T03:40:14;21.60;52.30
48806;DHT22;34625;47.176;27.548;2024-01-30T03:42:41;21.60;52.40
48806;DHT22;34625;47.176;27.548;2024-01-30T03:45:07;21.70;52.40
48806;DHT22;34625;47.176;27.548;2024-01-30T03:47:34;21.70;52.40
48806;DHT22;34625;47.176;27.548;2024-01-30T03:50:00;21.50;52.40
48806;DHT22;34625;47.176;27.548;2024-01-30T03:52:26;21.50;52.40
48806;DHT22;34625;47.176;27.548;2024-01-30T03:54:52;21.50;52.40
48806;DHT22;34625;47.176;27.548;2024-01-30T03:57:18;21.50;52.40
48806;DHT22;34625;47.176;27.548;2024-01-30T03:59:44;21.50;52.40
48806;DHT22;34625;47.176;27.548;2024-01-30T04:02:11;21.50;52.50
48806;DHT22;34625;47.176;27.548;2024-01-30T04:04:38;21.40;52.40
48806;DHT22;34625;47.176;27.548;2024-01-30T04:07:04;21.40;52.30
48806;DHT22;34625;47.176;27.548;2024-01-30T04:09:30;21.40;52.30
48806;DHT22;34625;47.176;27.548;2024-01-30T04:11:56;21.40;52.30
48806;DHT22;34625;47.176;27.548;2024-01-30T04:14:22;21.60;52.40
48806;DHT22;34625;47.176;27.548;2024-01-30T04:16:48;21.40;52.30
48806;DHT22;34625;47.176;27.548;2024-01-30T04:19:14;21.40;52.30
48806;DHT22;34625;47.176;27.548;2024-01-30T04:21:40;21.50;52.50
48806;DHT22;34625;47.176;27.548;2024-01-30T04:24:06;21.60;52.50
48806;DHT22;34625;47.176;27.548;2024-01-30T04:26:32;21.50;52.50
48806;DHT22;34625;47.176;27.548;2024-01-30T04:28:58;21.40;52.40
48806;DHT22;34625;47.176;27.548;2024-01-30T04:31:24;21.70;52.50
48806;DHT22;34625;47.176;27.548;2024-01-30T04:33:50;21.50;52.40
48806;DHT22;34625;47.176;27.548;2024-01-30T04:36:16;21.60;52.30
48806;DHT22;34625;47.176;27.548;2024-01-30T04:38:43;21.50;52.30
48806;DHT22;34625;47.176;27.548;2024-01-30T04:41:09;21.60;52.20
48806;DHT22;34625;47.176;27.548;2024-01-30T04:43:35;21.60;52.20
48806;DHT22;34625;47.176;27.548;2024-01-30T04:46:01;21.50;52.20
48806;DHT22;34625;47.176;27.548;2024-01-30T04:48:27;21.60;52.00
48806;DHT22;34625;47.176;27.548;2024-01-30T04:50:53;21.80;52.10
48806;DHT22;34625;47.176;27.548;2024-01-30T04:53:20;21.70;52.10
48806;DHT22;34625;47.176;27.548;2024-01-30T04:55:47;21.70;52.00
48806;DHT22;34625;47.176;27.548;2024-01-30T04:58:13;21.60;51.90
48806;DHT22;34625;47.176;27.548;2024-01-30T05:00:39;21.70;51.90
48806;DHT22;34625;47.176;27.548;2024-01-30T05:03:05;21.80;52.20
48806;DHT22;34625;47.176;27.548;2024-01-30T05:05:31;21.90;52.10
48806;DHT22;34625;47.176;27.548;2024-01-30T05:07:57;21.80;51.90
48806;DHT22;34625;47.176;27.548;2024-01-30T05:10:23;21.90;52.00
48806;DHT22;34625;47.176;27.548;2024-01-30T05:12:49;22.00;52.00
48806;DHT22;34625;47.176;27.548;2024-01-30T05:15:15;21.90;52.00
48806;DHT22;34625;47.176;27.548;2024-01-30T05:17:41;21.80;51.80
48806;DHT22;34625;47.176;27.548;2024-01-30T05:20:08;21.90;51.90
48806;DHT22;34625;47.176;27.548;2024-01-30T05:22:35;21.90;51.80
48806;DHT22;34625;47.176;27.548;2024-01-30T05:25:01;21.90;51.70
48806;DHT22;34625;47.176;27.548;2024-01-30T05:27:27;21.90;51.70
48806;DHT22;34625;47.176;27.548;2024-01-30T05:29:53;21.90;51.70
48806;DHT22;34625;47.176;27.548;2024-01-30T05:32:19;21.80;51.60
48806;DHT22;34625;47.176;27.548;2024-01-30T05:34:45;21.90;51.70
48806;DHT22;34625;47.176;27.548;2024-01-30T05:37:11;21.90;51.70
48806;DHT22;34625;47.176;27.548;2024-01-30T05:39:42;21.80;51.60
48806;DHT22;34625;47.176;27.548;2024-01-30T05:42:08;21.90;51.60
48806;DHT22;34625;47.176;27.548;2024-01-30T05:44:35;21.80;51.50
48806;DHT22;34625;47.176;27.548;2024-01-30T05:47:01;21.90;51.60
48806;DHT22;34625;47.176;27.548;2024-01-30T05:49:28;21.90;51.70
48806;DHT22;34625;47.176;27.548;2024-01-30T05:51:54;21.90;51.70
48806;DHT22;34625;47.176;27.548;2024-01-30T05:54:20;21.80;51.60
48806;DHT22;34625;47.176;27.548;2024-01-30T05:56:46;21.80;51.40
48806;DHT22;34625;47.176;27.548;2024-01-30T05:59:12;21.80;51.40
48806;DHT22;34625;47.176;27.548;2024-01-30T06:01:38;21.70;51.50
48806;DHT22;34625;47.176;27.548;2024-01-30T06:04:04;21.70;51.50
48806;DHT22;34625;47.176;27.548;2024-01-30T06:06:30;21.90;51.50
48806;DHT22;34625;47.176;27.548;2024-01-30T06:08:56;21.90;51.50
48806;DHT22;34625;47.176;27.548;2024-01-30T06:11:22;21.80;50.70
48806;DHT22;34625;47.176;27.548;2024-01-30T06:13:48;21.80;50.90
48806;DHT22;34625;47.176;27.548;2024-01-30T06:16:14;21.80;45.50
48806;DHT22;34625;47.176;27.548;2024-01-30T06:18:40;21.80;44.00
48806;DHT22;34625;47.176;27.548;2024-01-30T06:21:07;21.70;45.00
48806;DHT22;34625;47.176;27.548;2024-01-30T06:23:33;21.70;42.50
48806;DHT22;34625;47.176;27.548;2024-01-30T06:25:59;21.80;42.40
48806;DHT22;34625;47.176;27.548;2024-01-30T06:28:25;21.90;44.90
48806;DHT22;34625;47.176;27.548;2024-01-30T06:30:51;22.00;42.10
48806;DHT22;34625;47.176;27.548;2024-01-30T06:33:17;21.90;43.30
48806;DHT22;34625;47.176;27.548;2024-01-30T06:35:43;22.10;47.30
48806;DHT22;34625;47.176;27.548;2024-01-30T06:38:11;22.20;48.20
48806;DHT22;34625;47.176;27.548;2024-01-30T06:40:39;22.20;44.90
48806;DHT22;34625;47.176;27.548;2024-01-30T06:43:05;22.40;47.30
48806;DHT22;34625;47.176;27.548;2024-01-30T06:45:31;22.30;51.40
48806;DHT22;34625;47.176;27.548;2024-01-30T06:47:57;22.50;50.50
48806;DHT22;34625;47.176;27.548;2024-01-30T06:50:23;22.60;52.50
48806;DHT22;34625;47.176;27.548;2024-01-30T06:52:49;22.70;51.50
48806;DHT22;34625;47.176;27.548;2024-01-30T06:55:15;22.60;51.30
48806;DHT22;34625;47.176;27.548;2024-01-30T06:57:42;22.60;50.50
48806;DHT22;34625;47.176;27.548;2024-01-30T07:00:08;22.70;51.40
48806;DHT22;34625;47.176;27.548;2024-01-30T07:02:34;22.60;51.80
48806;DHT22;34625;47.176;27.548;2024-01-30T07:05:00;22.70;51.60
48806;DHT22;34625;47.176;27.548;2024-01-30T07:07:26;22.70;51.30
48806;DHT22;34625;47.176;27.548;2024-01-30T07:09:52;22.50;51.10
48806;DHT22;34625;47.176;27.548;2024-01-30T07:12:25;22.50;51.10
48806;DHT22;34625;47.176;27.548;2024-01-30T07:14:51;22.60;51.10
48806;DHT22;34625;47.176;27.548;2024-01-30T07:17:18;22.40;51.00
48806;DHT22;34625;47.176;27.548;2024-01-30T07:19:44;22.50;51.10
48806;DHT22;34625;47.176;27.548;2024-01-30T07:22:10;22.40;51.20
48806;DHT22;34625;47.176;27.548;2024-01-30T07:24:36;22.40;51.30
48806;DHT22;34625;47.176;27.548;2024-01-30T07:27:02;22.50;51.40
48806;DHT22;34625;47.176;27.548;2024-01-30T07:29:28;22.40;51.40
48806;DHT22;34625;47.176;27.548;2024-01-30T07:31:54;22.50;51.50
48806;DHT22;34625;47.176;27.548;2024-01-30T07:34:20;22.60;51.60
48806;DHT22;34625;47.176;27.548;2024-01-30T07:36:46;22.40;51.90
48806;DHT22;34625;47.176;27.548;2024-01-30T07:39:12;22.40;52.00
48806;DHT22;34625;47.176;27.548;2024-01-30T07:41:38;22.40;52.20
48806;DHT22;34625;47.176;27.548;2024-01-30T07:44:05;22.30;52.30
48806;DHT22;34625;47.176;27.548;2024-01-30T07:46:31;22.30;52.60
48806;DHT22;34625;47.176;27.548;2024-01-30T07:48:57;22.40;52.50
48806;DHT22;34625;47.176;27.548;2024-01-30T07:51:23;22.30;53.20
48806;DHT22;34625;47.176;27.548;2024-01-30T07:53:49;22.30;53.20
48806;DHT22;34625;47.176;27.548;2024-01-30T07:56:15;22.20;53.10
48806;DHT22;34625;47.176;27.548;2024-01-30T07:58:42;22.20;53.30
48806;DHT22;34625;47.176;27.548;2024-01-30T08:01:08;22.20;53.70
48806;DHT22;34625;47.176;27.548;2024-01-30T08:03:34;22.10;52.90
48806;DHT22;34625;47.176;27.548;2024-01-30T08:06:00;22.10;53.00
48806;DHT22;34625;47.176;27.548;2024-01-30T08:08:26;22.00;53.30
48806;DHT22;34625;47.176;27.548;2024-01-30T08:10:52;22.10;53.50
48806;DHT22;34625;47.176;27.548;2024-01-30T08:13:19;22.00;53.40
48806;DHT22;34625;47.176;27.548;2024-01-30T08:15:45;22.00;53.40
48806;DHT22;34625;47.176;27.548;2024-01-30T08:18:11;22.10;53.70
48806;DHT22;34625;47.176;27.548;2024-01-30T08:20:37;22.10;54.00
48806;DHT22;34625;47.176;27.548;2024-01-30T08:23:03;22.00;53.90
48806;DHT22;34625;47.176;27.548;2024-01-30T08:25:29;22.00;54.00
48806;DHT22;34625;47.176;27.548;2024-01-30T08:27:55;22.20;54.20
48806;DHT22;34625;47.176;27.548;2024-01-30T08:30:22;22.20;53.00
48806;DHT22;34625;47.176;27.548;2024-01-30T08:32:49;22.20;50.50
48806;DHT22;34625;47.176;27.548;2024-01-30T08:35:15;22.40;51.20
48806;DHT22;34625;47.176;27.548;2024-01-30T08:37:41;22.70;50.70
48806;DHT22;34625;47.176;27.548;2024-01-30T08:40:08;22.80;48.50
48806;DHT22;34625;47.176;27.548;2024-01-30T08:42:34;23.20;48.30
48806;DHT22;34625;47.176;27.548;2024-01-30T08:45:00;23.30;49.90
48806;DHT22;34625;47.176;27.548;2024-01-30T08:47:26;23.50;49.70
48806;DHT22;34625;47.176;27.548;2024-01-30T08:49:53;23.80;51.70
48806;DHT22;34625;47.176;27.548;2024-01-30T08:52:19;24.00;53.00
48806;DHT22;34625;47.176;27.548;2024-01-30T08:54:45;24.40;56.90
48806;DHT22;34625;47.176;27.548;2024-01-30T08:57:11;24.30;50.80
48806;DHT22;34625;47.176;27.548;2024-01-30T08:59:37;24.50;52.60
48806;DHT22;34625;47.176;27.548;2024-01-30T09:02:03;24.50;50.50
48806;DHT22;34625;47.176;27.548;2024-01-30T09:04:30;24.60;53.00
48806;DHT22;34625;47.176;27.548;2024-01-30T09:06:56;24.90;49.90
48806;DHT22;34625;47.176;27.548;2024-01-30T09:09:22;25.00;50.40
48806;DHT22;34625;47.176;27.548;2024-01-30T09:11:49;25.10;49.20
48806;DHT22;34625;47.176;27.548;2024-01-30T09:14:15;25.10;50.00
48806;DHT22;34625;47.176;27.548;2024-01-30T09:16:41;25.30;49.00
48806;DHT22;34625;47.176;27.548;2024-01-30T09:19:07;25.30;45.50
48806;DHT22;34625;47.176;27.548;2024-01-30T09:21:33;25.10;45.40
48806;DHT22;34625;47.176;27.548;2024-01-30T09:24:03;25.20;45.20
48806;DHT22;34625;47.176;27.548;2024-01-30T09:26:32;25.20;46.10
48806;DHT22;34625;47.176;27.548;2024-01-30T09:28:58;25.20;44.00
48806;DHT22;34625;47.176;27.548;2024-01-30T09:31:25;25.00;42.10
48806;DHT22;34625;47.176;27.548;2024-01-30T09:33:51;25.00;43.80
48806;DHT22;34625;47.176;27.548;2024-01-30T09:36:20;24.90;44.40
48806;DHT22;34625;47.176;27.548;2024-01-30T09:38:46;24.80;42.90
48806;DHT22;34625;47.176;27.548;2024-01-30T09:41:12;24.80;44.30
48806;DHT22;34625;47.176;27.548;2024-01-30T09:43:39;24.90;45.30
48806;DHT22;34625;47.176;27.548;2024-01-30T09:46:12;24.70;44.10
48806;DHT22;34625;47.176;27.548;2024-01-30T09:48:41;24.90;45.50
48806;DHT22;34625;47.176;27.548;2024-01-30T09:51:09;24.90;43.70
48806;DHT22;34625;47.176;27.548;2024-01-30T09:53:37;24.70;39.60
48806;DHT22;34625;47.176;27.548;2024-01-30T09:56:04;24.60;33.60
48806;DHT22;34625;47.176;27.548;2024-01-30T09:58:31;24.40;34.20
48806;DHT22;34625;47.176;27.548;2024-01-30T10:00:57;24.30;37.60
48806;DHT22;34625;47.176;27.548;2024-01-30T10:03:23;24.30;38.90
48806;DHT22;34625;47.176;27.548;2024-01-30T10:05:52;24.40;39.90
48806;DHT22;34625;47.176;27.548;2024-01-30T10:08:18;24.30;39.70
48806;DHT22;34625;47.176;27.548;2024-01-30T10:10:48;24.20;37.70
48806;DHT22;34625;47.176;27.548;2024-01-30T10:13:16;24.10;35.80
48806;DHT22;34625;47.176;27.548;2024-01-30T10:15:42;24.10;35.80
48806;DHT22;34625;47.176;27.548;2024-01-30T10:18:08;24.00;36.10
48806;DHT22;34625;47.176;27.548;2024-01-30T10:20:36;24.10;32.40
48806;DHT22;34625;47.176;27.548;2024-01-30T10:23:03;24.00;35.40
48806;DHT22;34625;47.176;27.548;2024-01-30T10:25:31;23.80;35.20
48806;DHT22;34625;47.176;27.548;2024-01-30T10:27:58;23.80;33.50
48806;DHT22;34625;47.176;27.548;2024-01-30T10:30:24;23.70;34.00
48806;DHT22;34625;47.176;27.548;2024-01-30T10:32:51;23.70;34.80
48806;DHT22;34625;47.176;27.548;2024-01-30T10:35:17;23.70;35.30
48806;DHT22;34625;47.176;27.548;2024-01-30T10:37:44;23.70;34.50
48806;DHT22;34625;47.176;27.548;2024-01-30T10:40:13;23.60;35.40
48806;DHT22;34625;47.176;27.548;2024-01-30T10:42:43;23.60;42.20
48806;DHT22;34625;47.176;27.548;2024-01-30T10:45:13;23.70;42.90
48806;DHT22;34625;47.176;27.548;2024-01-30T10:47:43;23.70;45.90
48806;DHT22;34625;47.176;27.548;2024-01-30T10:50:09;23.60;46.70
48806;DHT22;34625;47.176;27.548;2024-01-30T10:52:36;23.60;47.80
48806;DHT22;34625;47.176;27.548;2024-01-30T10:55:04;23.50;48.30
48806;DHT22;34625;47.176;27.548;2024-01-30T10:57:34;23.50;49.30
48806;DHT22;34625;47.176;27.548;2024-01-30T11:00:05;23.40;49.50
48806;DHT22;34625;47.176;27.548;2024-01-30T11:02:41;23.50;49.60
48806;DHT22;34625;47.176;27.548;2024-01-30T11:05:08;23.50;50.20
48806;DHT22;34625;47.176;27.548;2024-01-30T11:07:34;23.30;49.90
48806;DHT22;34625;47.176;27.548;2024-01-30T11:10:04;23.30;50.10
48806;DHT22;34625;47.176;27.548;2024-01-30T11:12:33;23.20;49.30
48806;DHT22;34625;47.176;27.548;2024-01-30T11:20:36;23.30;48.80
48806;DHT22;34625;47.176;27.548;2024-01-30T11:23:02;23.30;48.40
48806;DHT22;34625;47.176;27.548;2024-01-30T11:25:32;23.20;48.10
48806;DHT22;34625;47.176;27.548;2024-01-30T11:27:58;23.30;48.00
48806;DHT22;34625;47.176;27.548;2024-01-30T11:30:29;23.20;47.90
48806;DHT22;34625;47.176;27.548;2024-01-30T11:33:09;23.40;47.90
48806;DHT22;34625;47.176;27.548;2024-01-30T11:35:41;23.20;47.70
48806;DHT22;34625;47.176;27.548;2024-01-30T11:38:09;23.20;47.50
48806;DHT22;34625;47.176;27.548;2024-01-30T11:40:38;23.30;47.40
48806;DHT22;34625;47.176;27.548;2024-01-30T11:43:05;23.20;47.20
48806;DHT22;34625;47.176;27.548;2024-01-30T11:45:32;23.20;47.00
48806;DHT22;34625;47.176;27.548;2024-01-30T11:47:59;23.10;46.90
48806;DHT22;34625;47.176;27.548;2024-01-30T11:50:33;23.20;46.70
48806;DHT22;34625;47.176;27.548;2024-01-30T11:53:00;23.20;46.50
48806;DHT22;34625;47.176;27.548;2024-01-30T11:55:27;23.10;46.40
48806;DHT22;34625;47.176;27.548;2024-01-30T11:57:58;23.10;46.30
48806;DHT22;34625;47.176;27.548;2024-01-30T12:00:25;23.00;46.10
48806;DHT22;34625;47.176;27.548;2024-01-30T12:02:52;23.10;46.70
48806;DHT22;34625;47.176;27.548;2024-01-30T12:05:30;23.20;46.70
48806;DHT22;34625;47.176;27.548;2024-01-30T12:07:56;23.20;46.50
48806;DHT22;34625;47.176;27.548;2024-01-30T12:10:25;23.40;46.50
48806;DHT22;34625;47.176;27.548;2024-01-30T12:12:52;23.50;45.80
48806;DHT22;34625;47.176;27.548;2024-01-30T12:15:21;23.50;45.20
48806;DHT22;34625;47.176;27.548;2024-01-30T12:17:47;23.50;44.60
48806;DHT22;34625;47.176;27.548;2024-01-30T12:20:17;23.70;43.90
48806;DHT22;34625;47.176;27.548;2024-01-30T12:22:45;23.70;45.10
48806;DHT22;34625;47.176;27.548;2024-01-30T12:25:12;24.00;49.10
48806;DHT22;34625;47.176;27.548;2024-01-30T12:27:41;24.00;43.20
48806;DHT22;34625;47.176;27.548;2024-01-30T12:30:09;23.80;46.00
48806;DHT22;34625;47.176;27.548;2024-01-30T12:32:36;23.70;44.90
48806;DHT22;34625;47.176;27.548;2024-01-30T12:35:02;23.80;44.60
48806;DHT22;34625;47.176;27.548;2024-01-30T12:37:30;23.80;44.20
48806;DHT22;34625;47.176;27.548;2024-01-30T12:39:56;23.70;44.10
48806;DHT22;34625;47.176;27.548;2024-01-30T12:42:23;23.70;44.00
48806;DHT22;34625;47.176;27.548;2024-01-30T12:44:49;23.60;43.90
48806;DHT22;34625;47.176;27.548;2024-01-30T12:47:15;23.50;43.90
48806;DHT22;34625;47.176;27.548;2024-01-30T12:49:44;23.60;43.90
48806;DHT22;34625;47.176;27.548;2024-01-30T12:52:11;23.50;44.00
48806;DHT22;34625;47.176;27.548;2024-01-30T12:54:38;23.50;44.10
48806;DHT22;34625;47.176;27.548;2024-01-30T12:57:05;23.50;44.30
48806;DHT22;34625;47.176;27.548;2024-01-30T12:59:31;23.30;44.20
48806;DHT22;34625;47.176;27.548;2024-01-30T13:02:00;23.30;44.30
48806;DHT22;34625;47.176;27.548;2024-01-30T13:04:26;23.40;44.40
48806;DHT22;34625;47.176;27.548;2024-01-30T13:06:53;23.40;44.60
48806;DHT22;34625;47.176;27.548;2024-01-30T13:09:19;23.40;44.90
48806;DHT22;34625;47.176;27.548;2024-01-30T13:11:46;23.30;46.80
48806;DHT22;34625;47.176;27.548;2024-01-30T13:14:12;23.10;46.90
48806;DHT22;34625;47.176;27.548;2024-01-30T13:16:38;23.10;47.30
48806;DHT22;34625;47.176;27.548;2024-01-30T13:19:04;23.10;48.80
48806;DHT22;34625;47.176;27.548;2024-01-30T13:21:30;23.00;48.70
48806;DHT22;34625;47.176;27.548;2024-01-30T13:23:56;23.00;48.30
48806;DHT22;34625;47.176;27.548;2024-01-30T13:26:23;23.10;47.90
48806;DHT22;34625;47.176;27.548;2024-01-30T13:28:49;22.90;47.50
48806;DHT22;34625;47.176;27.548;2024-01-30T13:31:15;23.10;47.30
48806;DHT22;34625;47.176;27.548;2024-01-30T13:33:42;23.00;47.10
48806;DHT22;34625;47.176;27.548;2024-01-30T13:36:10;23.00;47.00
48806;DHT22;34625;47.176;27.548;2024-01-30T13:38:36;22.90;46.90
48806;DHT22;34625;47.176;27.548;2024-01-30T13:41:02;23.00;46.90
48806;DHT22;34625;47.176;27.548;2024-01-30T13:43:29;23.00;46.80
48806;DHT22;34625;47.176;27.548;2024-01-30T13:45:55;23.10;46.90
48806;DHT22;34625;47.176;27.548;2024-01-30T13:48:21;23.00;46.80
48806;DHT22;34625;47.176;27.548;2024-01-30T13:50:47;22.90;46.80
48806;DHT22;34625;47.176;27.548;2024-01-30T13:53:14;22.90;46.80
48806;DHT22;34625;47.176;27.548;2024-01-30T13:55:40;22.90;46.80
48806;DHT22;34625;47.176;27.548;2024-01-30T13:58:06;22.90;46.80
48806;DHT22;34625;47.176;27.548;2024-01-30T14:00:33;23.00;46.80
48806;DHT22;34625;47.176;27.548;2024-01-30T14:03:00;23.00;46.80
48806;DHT22;34625;47.176;27.548;2024-01-30T14:05:26;23.00;46.80
48806;DHT22;34625;47.176;27.548;2024-01-30T14:07:56;23.00;46.80
48806;DHT22;34625;47.176;27.548;2024-01-30T14:10:24;22.90;46.80
48806;DHT22;34625;47.176;27.548;2024-01-30T14:12:51;22.90;46.80
48806;DHT22;34625;47.176;27.548;2024-01-30T14:15:17;22.80;46.80
48806;DHT22;34625;47.176;27.548;2024-01-30T14:17:47;22.80;46.80
48806;DHT22;34625;47.176;27.548;2024-01-30T14:20:15;22.90;46.90
48806;DHT22;34625;47.176;27.548;2024-01-30T14:22:44;22.80;46.80
48806;DHT22;34625;47.176;27.548;2024-01-30T14:25:10;22.70;46.80
48806;DHT22;34625;47.176;27.548;2024-01-30T14:27:36;22.70;46.80
48806;DHT22;34625;47.176;27.548;2024-01-30T14:30:02;22.80;46.80
48806;DHT22;34625;47.176;27.548;2024-01-30T14:32:30;22.70;46.80
48806;DHT22;34625;47.176;27.548;2024-01-30T14:34:56;22.70;46.80
48806;DHT22;34625;47.176;27.548;2024-01-30T14:37:22;22.60;46.80
48806;DHT22;34625;47.176;27.548;2024-01-30T14:39:49;22.60;46.80
48806;DHT22;34625;47.176;27.548;2024-01-30T14:42:15;22.60;46.80
48806;DHT22;34625;47.176;27.548;2024-01-30T14:44:42;22.50;46.90
48806;DHT22;34625;47.176;27.548;2024-01-30T14:47:08;22.50;46.90
48806;DHT22;34625;47.176;27.548;2024-01-30T14:49:34;22.60;47.00
48806;DHT22;34625;47.176;27.548;2024-01-30T14:52:01;22.40;47.00
48806;DHT22;34625;47.176;27.548;2024-01-30T14:54:30;22.60;47.10
48806;DHT22;34625;47.176;27.548;2024-01-30T14:56:56;22.50;47.10
48806;DHT22;34625;47.176;27.548;2024-01-30T14:59:22;22.40;47.00
48806;DHT22;34625;47.176;27.548;2024-01-30T15:01:49;22.40;47.00
48806;DHT22;34625;47.176;27.548;2024-01-30T15:04:15;22.40;47.00
48806;DHT22;34625;47.176;27.548;2024-01-30T15:06:41;22.40;47.00
48806;DHT22;34625;47.176;27.548;2024-01-30T15:09:11;22.40;47.00
48806;DHT22;34625;47.176;27.548;2024-01-30T15:11:41;22.50;47.10
48806;DHT22;34625;47.176;27.548;2024-01-30T15:14:07;22.40;46.90
48806;DHT22;34625;47.176;27.548;2024-01-30T15:16:34;22.40;46.80
48806;DHT22;34625;47.176;27.548;2024-01-30T15:19:00;22.40;46.70